sensor_id;sensor_type;location;lat;lon;timestamp;temperature;humidity
49238;DHT22;35069;47.906;1.892;2024-01-11T00:02:06;-0.60;92.00
49238;DHT22;35069;47.906;1.892;2024-01-11T00:04:32;-0.60;91.90
49238;DHT22;35069;47.906;1.892;2024-01-11T00:06:57;-0.60;91.90
49238;DHT22;35069;47.906;1.892;2024-01-11T00:09:23;-0.60;91.90
49238;DHT22;35069;47.906;1.892;2024-01-11T00:11:49;-0.60;91.90
49238;DHT22;35069;47.906;1.892;2024-01-11T00:14:14;-0.60;91.90
49238;DHT22;35069;47.906;1.892;2024-01-11T00:16:41;-0.60;91.90
49238;DHT22;35069;47.906;1.892;2024-01-11T00:19:07;-0.50;91.90
49238;DHT22;35069;47.906;1.892;2024-01-11T00:21:32;-0.50;91.90
49238;DHT22;35069;47.906;1.892;2024-01-11T00:23:58;-0.50;91.80
49238;DHT22;35069;47.906;1.892;2024-01-11T00:26:24;-0.50;91.90
49238;DHT22;35069;47.906;1.892;2024-01-11T00:28:49;-0.50;91.80
49238;DHT22;35069;47.906;1.892;2024-01-11T00:31:15;-0.60;91.90
49238;DHT22;35069;47.906;1.892;2024-01-11T00:33:41;-0.50;91.90
49238;DHT22;35069;47.906;1.892;2024-01-11T00:36:06;-0.50;91.90
49238;DHT22;35069;47.906;1.892;2024-01-11T00:38:32;-0.40;91.90
49238;DHT22;35069;47.906;1.892;2024-01-11T00:40:57;-0.40;91.90
49238;DHT22;35069;47.906;1.892;2024-01-11T00:43:23;-0.40;91.80
49238;DHT22;35069;47.906;1.892;2024-01-11T00:45:49;-0.40;91.90
49238;DHT22;35069;47.906;1.892;2024-01-11T00:48:14;-0.40;91.80
49238;DHT22;35069;47.906;1.892;2024-01-11T00:50:40;-0.30;91.90
49238;DHT22;35069;47.906;1.892;2024-01-11T00:53:05;-0.40;91.70
49238;DHT22;35069;47.906;1.892;2024-01-11T00:55:31;-0.30;91.80
49238;DHT22;35069;47.906;1.892;2024-01-11T00:57:57;-0.30;91.90
49238;DHT22;35069;47.906;1.892;2024-01-11T01:00:22;-0.30;91.80
49238;DHT22;35069;47.906;1.892;2024-01-11T01:02:48;-0.30;91.70
49238;DHT22;35069;47.906;1.892;2024-01-11T01:05:13;-0.20;91.80
49238;DHT22;35069;47.906;1.892;2024-01-11T01:07:39;-0.30;91.60
49238;DHT22;35069;47.906;1.892;2024-01-11T01:10:05;-0.30;91.70
49238;DHT22;35069;47.906;1.892;2024-01-11T01:12:31;-0.30;91.60
49238;DHT22;35069;47.906;1.892;2024-01-11T01:14:57;-0.30;91.80
49238;DHT22;35069;47.906;1.892;2024-01-11T01:17:22;-0.30;91.70
49238;DHT22;35069;47.906;1.892;2024-01-11T01:19:48;-0.30;91.70
49238;DHT22;35069;47.906;1.892;2024-01-11T01:22:14;-0.30;91.80
49238;DHT22;35069;47.906;1.892;2024-01-11T01:24:39;-0.20;91.90
49238;DHT22;35069;47.906;1.892;2024-01-11T01:27:05;-0.20;91.80
49238;DHT22;35069;47.906;1.892;2024-01-11T01:29:30;-0.20;91.70
49238;DHT22;35069;47.906;1.892;2024-01-11T01:31:56;-0.20;91.70
49238;DHT22;35069;47.906;1.892;2024-01-11T01:34:21;-0.20;91.70
49238;DHT22;35069;47.906;1.892;2024-01-11T01:36:47;-0.20;91.80
49238;DHT22;35069;47.906;1.892;2024-01-11T01:39:13;-0.20;91.80
49238;DHT22;35069;47.906;1.892;2024-01-11T01:41:38;-0.20;91.70
49238;DHT22;35069;47.906;1.892;2024-01-11T01:44:04;-0.20;91.70
49238;DHT22;35069;47.906;1.892;2024-01-11T01:46:29;-0.20;91.80
49238;DHT22;35069;47.906;1.892;2024-01-11T01:48:57;-0.20;91.80
49238;DHT22;35069;47.906;1.892;2024-01-11T01:51:25;-0.20;91.70
49238;DHT22;35069;47.906;1.892;2024-01-11T01:53:52;-0.20;91.70
49238;DHT22;35069;47.906;1.892;2024-01-11T01:56:20;-0.20;91.80
49238;DHT22;35069;47.906;1.892;2024-01-11T01:58:46;-0.20;91.70
49238;DHT22;35069;47.906;1.892;2024-01-11T02:01:14;-0.20;91.70
49238;DHT22;35069;47.906;1.892;2024-01-11T02:03:40;-0.20;91.70
49238;DHT22;35069;47.906;1.892;2024-01-11T02:06:07;-0.20;91.70
49238;DHT22;35069;47.906;1.892;2024-01-11T02:08:34;-0.20;91.80
49238;DHT22;35069;47.906;1.892;2024-01-11T02:11:01;-0.20;91.80
49238;DHT22;35069;47.906;1.892;2024-01-11T02:13:26;-0.10;91.90
49238;DHT22;35069;47.906;1.892;2024-01-11T02:15:52;-0.10;92.00
49238;DHT22;35069;47.906;1.892;2024-01-11T02:18:17;-0.10;92.00
49238;DHT22;35069;47.906;1.892;2024-01-11T02:20:43;-0.10;92.00
49238;DHT22;35069;47.906;1.892;2024-01-11T02:23:15;-0.10;91.90
49238;DHT22;35069;47.906;1.892;2024-01-11T02:25:42;-0.10;91.90
49238;DHT22;35069;47.906;1.892;2024-01-11T02:28:08;-0.10;91.90
49238;DHT22;35069;47.906;1.892;2024-01-11T02:30:34;-0.10;91.90
49238;DHT22;35069;47.906;1.892;2024-01-11T02:33:00;-0.10;92.10
49238;DHT22;35069;47.906;1.892;2024-01-11T02:35:27;-0.10;92.10
49238;DHT22;35069;47.906;1.892;2024-01-11T02:37:53;-0.10;92.00
49238;DHT22;35069;47.906;1.892;2024-01-11T02:40:19;-0.10;91.90
49238;DHT22;35069;47.906;1.892;2024-01-11T02:42:44;-0.10;92.00
49238;DHT22;35069;47.906;1.892;2024-01-11T02:45:11;-0.10;92.00
49238;DHT22;35069;47.906;1.892;2024-01-11T02:47:40;-0.10;91.90
49238;DHT22;35069;47.906;1.892;2024-01-11T02:50:06;-0.10;91.90
49238;DHT22;35069;47.906;1.892;2024-01-11T02:52:33;0.00;91.90
49238;DHT22;35069;47.906;1.892;2024-01-11T02:54:59;0.00;91.90
49238;DHT22;35069;47.906;1.892;2024-01-11T02:57:27;0.00;91.90
49238;DHT22;35069;47.906;1.892;2024-01-11T02:59:53;0.00;91.80
49238;DHT22;35069;47.906;1.892;2024-01-11T03:02:18;0.00;91.80
49238;DHT22;35069;47.906;1.892;2024-01-11T03:04:44;0.00;91.80
49238;DHT22;35069;47.906;1.892;2024-01-11T03:07:10;-0.10;91.70
49238;DHT22;35069;47.906;1.892;2024-01-11T03:09:36;-0.10;91.80
49238;DHT22;35069;47.906;1.892;2024-01-11T03:12:01;-0.20;91.80
49238;DHT22;35069;47.906;1.892;2024-01-11T03:14:27;-0.20;91.80
49238;DHT22;35069;47.906;1.892;2024-01-11T03:16:53;-0.20;91.80
49238;DHT22;35069;47.906;1.892;2024-01-11T03:19:18;-0.20;91.80
49238;DHT22;35069;47.906;1.892;2024-01-11T03:21:45;-0.20;91.80
49238;DHT22;35069;47.906;1.892;2024-01-11T03:24:12;-0.30;92.10
49238;DHT22;35069;47.906;1.892;2024-01-11T03:26:37;-0.30;91.80
49238;DHT22;35069;47.906;1.892;2024-01-11T03:29:03;-0.40;91.80
49238;DHT22;35069;47.906;1.892;2024-01-11T03:31:28;-0.40;91.60
49238;DHT22;35069;47.906;1.892;2024-01-11T03:33:54;-0.40;91.80
49238;DHT22;35069;47.906;1.892;2024-01-11T03:36:23;-0.40;91.80
49238;DHT22;35069;47.906;1.892;2024-01-11T03:38:49;-0.40;91.90
49238;DHT22;35069;47.906;1.892;2024-01-11T03:41:14;-0.50;91.90
49238;DHT22;35069;47.906;1.892;2024-01-11T03:43:40;-0.40;91.70
49238;DHT22;35069;47.906;1.892;2024-01-11T03:46:05;-0.40;91.70
49238;DHT22;35069;47.906;1.892;2024-01-11T03:48:31;-0.40;91.80
49238;DHT22;35069;47.906;1.892;2024-01-11T03:50:57;-0.50;91.80
49238;DHT22;35069;47.906;1.892;2024-01-11T03:53:22;-0.50;91.70
49238;DHT22;35069;47.906;1.892;2024-01-11T03:55:48;-0.50;91.90
49238;DHT22;35069;47.906;1.892;2024-01-11T03:58:14;-0.50;91.80
49238;DHT22;35069;47.906;1.892;2024-01-11T04:00:39;-0.50;91.80
49238;DHT22;35069;47.906;1.892;2024-01-11T04:03:06;-0.50;91.80
49238;DHT22;35069;47.906;1.892;2024-01-11T04:05:32;-0.50;91.80
49238;DHT22;35069;47.906;1.892;2024-01-11T04:07:57;-0.40;91.70
49238;DHT22;35069;47.906;1.892;2024-01-11T04:10:23;-0.40;91.80
49238;DHT22;35069;47.906;1.892;2024-01-11T04:12:48;-0.50;91.70
49238;DHT22;35069;47.906;1.892;2024-01-11T04:15:14;-0.40;91.80
49238;DHT22;35069;47.906;1.892;2024-01-11T04:17:40;-0.40;91.80
49238;DHT22;35069;47.906;1.892;2024-01-11T04:20:07;-0.40;91.80
49238;DHT22;35069;47.906;1.892;2024-01-11T04:22:34;-0.40;91.80
49238;DHT22;35069;47.906;1.892;2024-01-11T04:25:00;-0.40;91.80
49238;DHT22;35069;47.906;1.892;2024-01-11T04:27:25;-0.40;91.80
49238;DHT22;35069;47.906;1.892;2024-01-11T04:29:51;-0.40;91.70
49238;DHT22;35069;47.906;1.892;2024-01-11T04:32:17;-0.40;91.70
49238;DHT22;35069;47.906;1.892;2024-01-11T04:34:42;-0.40;91.70
49238;DHT22;35069;47.906;1.892;2024-01-11T04:37:08;-0.40;91.70
49238;DHT22;35069;47.906;1.892;2024-01-11T04:39:33;-0.40;91.70
49238;DHT22;35069;47.906;1.892;2024-01-11T04:41:59;-0.40;91.70
49238;DHT22;35069;47.906;1.892;2024-01-11T04:44:26;-0.40;91.70
49238;DHT22;35069;47.906;1.892;2024-01-11T04:46:51;-0.40;91.70
49238;DHT22;35069;47.906;1.892;2024-01-11T04:49:17;-0.40;91.70
49238;DHT22;35069;47.906;1.892;2024-01-11T04:51:43;-0.40;91.70
49238;DHT22;35069;47.906;1.892;2024-01-11T04:54:08;-0.40;91.70
49238;DHT22;35069;47.906;1.892;2024-01-11T04:56:34;-0.40;91.70
49238;DHT22;35069;47.906;1.892;2024-01-11T04:58:59;-0.40;91.70
49238;DHT22;35069;47.906;1.892;2024-01-11T05:01:25;-0.40;91.60
49238;DHT22;35069;47.906;1.892;2024-01-11T05:03:50;-0.40;91.70
49238;DHT22;35069;47.906;1.892;2024-01-11T05:06:17;-0.40;91.70
49238;DHT22;35069;47.906;1.892;2024-01-11T05:08:44;-0.40;91.60
49238;DHT22;35069;47.906;1.892;2024-01-11T05:11:19;-0.40;91.70
49238;DHT22;35069;47.906;1.892;2024-01-11T05:13:48;-0.40;91.70
49238;DHT22;35069;47.906;1.892;2024-01-11T05:19:11;-0.40;91.60
49238;DHT22;35069;47.906;1.892;2024-01-11T05:21:44;-0.50;91.50
49238;DHT22;35069;47.906;1.892;2024-01-11T05:24:12;-0.50;91.50
49238;DHT22;35069;47.906;1.892;2024-01-11T05:26:37;-0.50;91.50
49238;DHT22;35069;47.906;1.892;2024-01-11T05:29:03;-0.50;91.50
49238;DHT22;35069;47.906;1.892;2024-01-11T05:31:30;-0.50;91.60
49238;DHT22;35069;47.906;1.892;2024-01-11T05:33:55;-0.50;91.50
49238;DHT22;35069;47.906;1.892;2024-01-11T05:36:21;-0.60;91.50
49238;DHT22;35069;47.906;1.892;2024-01-11T05:38:47;-0.60;91.50
49238;DHT22;35069;47.906;1.892;2024-01-11T05:41:13;-0.60;91.50
49238;DHT22;35069;47.906;1.892;2024-01-11T05:43:40;-0.60;91.50
49238;DHT22;35069;47.906;1.892;2024-01-11T05:46:06;-0.70;91.50
49238;DHT22;35069;47.906;1.892;2024-01-11T05:48:32;-0.70;91.50
49238;DHT22;35069;47.906;1.892;2024-01-11T05:50:58;-0.70;91.40
49238;DHT22;35069;47.906;1.892;2024-01-11T05:53:25;-0.70;91.40
49238;DHT22;35069;47.906;1.892;2024-01-11T05:55:53;-0.70;91.50
49238;DHT22;35069;47.906;1.892;2024-01-11T05:58:18;-0.70;91.40
49238;DHT22;35069;47.906;1.892;2024-01-11T06:00:44;-0.70;91.40
49238;DHT22;35069;47.906;1.892;2024-01-11T06:03:12;-0.80;91.30
49238;DHT22;35069;47.906;1.892;2024-01-11T06:05:38;-0.70;91.40
49238;DHT22;35069;47.906;1.892;2024-01-11T06:08:04;-0.80;91.30
49238;DHT22;35069;47.906;1.892;2024-01-11T06:10:30;-0.80;91.30
49238;DHT22;35069;47.906;1.892;2024-01-11T06:12:56;-0.80;91.60
49238;DHT22;35069;47.906;1.892;2024-01-11T06:15:22;-0.80;91.20
49238;DHT22;35069;47.906;1.892;2024-01-11T06:17:47;-0.80;91.20
49238;DHT22;35069;47.906;1.892;2024-01-11T06:20:13;-0.80;91.20
49238;DHT22;35069;47.906;1.892;2024-01-11T06:22:38;-0.80;91.20
49238;DHT22;35069;47.906;1.892;2024-01-11T06:25:07;-0.80;91.20
49238;DHT22;35069;47.906;1.892;2024-01-11T06:27:34;-0.80;91.20
49238;DHT22;35069;47.906;1.892;2024-01-11T06:29:59;-0.80;91.30
49238;DHT22;35069;47.906;1.892;2024-01-11T06:32:25;-0.90;91.20
49238;DHT22;35069;47.906;1.892;2024-01-11T06:34:50;-0.90;91.20
49238;DHT22;35069;47.906;1.892;2024-01-11T06:37:16;-0.90;91.20
49238;DHT22;35069;47.906;1.892;2024-01-11T06:39:42;-0.90;91.20
49238;DHT22;35069;47.906;1.892;2024-01-11T06:42:08;-0.90;91.20
49238;DHT22;35069;47.906;1.892;2024-01-11T06:44:33;-1.00;91.20
49238;DHT22;35069;47.906;1.892;2024-01-11T06:46:59;-1.00;91.20
49238;DHT22;35069;47.906;1.892;2024-01-11T06:49:27;-1.00;91.30
49238;DHT22;35069;47.906;1.892;2024-01-11T06:51:52;-1.00;91.20
49238;DHT22;35069;47.906;1.892;2024-01-11T06:54:18;-1.00;91.20
49238;DHT22;35069;47.906;1.892;2024-01-11T06:56:43;-1.00;91.20
49238;DHT22;35069;47.906;1.892;2024-01-11T06:59:09;-1.00;91.20
49238;DHT22;35069;47.906;1.892;2024-01-11T07:01:34;-1.00;91.20
49238;DHT22;35069;47.906;1.892;2024-01-11T07:04:00;-0.90;91.70
49238;DHT22;35069;47.906;1.892;2024-01-11T07:06:25;-0.90;91.30
49238;DHT22;35069;47.906;1.892;2024-01-11T07:08:51;-0.70;91.40
49238;DHT22;35069;47.906;1.892;2024-01-11T07:11:16;-0.60;91.20
49238;DHT22;35069;47.906;1.892;2024-01-11T07:13:42;-0.70;91.00
49238;DHT22;35069;47.906;1.892;2024-01-11T07:16:09;-0.60;91.10
49238;DHT22;35069;47.906;1.892;2024-01-11T07:18:34;-0.60;90.90
49238;DHT22;35069;47.906;1.892;2024-01-11T07:21:00;-0.70;90.80
49238;DHT22;35069;47.906;1.892;2024-01-11T07:23:26;-0.70;90.80
49238;DHT22;35069;47.906;1.892;2024-01-11T07:25:52;-0.70;90.80
49238;DHT22;35069;47.906;1.892;2024-01-11T07:28:17;-0.70;90.80
49238;DHT22;35069;47.906;1.892;2024-01-11T07:30:45;-0.80;90.60
49238;DHT22;35069;47.906;1.892;2024-01-11T07:33:11;-0.80;90.70
49238;DHT22;35069;47.906;1.892;2024-01-11T07:35:37;-0.80;90.80
49238;DHT22;35069;47.906;1.892;2024-01-11T07:38:02;-0.80;90.70
49238;DHT22;35069;47.906;1.892;2024-01-11T07:40:28;-0.80;90.60
49238;DHT22;35069;47.906;1.892;2024-01-11T07:42:54;-0.90;90.60
49238;DHT22;35069;47.906;1.892;2024-01-11T07:45:19;-0.80;90.70
49238;DHT22;35069;47.906;1.892;2024-01-11T07:47:45;-0.80;90.70
49238;DHT22;35069;47.906;1.892;2024-01-11T07:50:11;-0.80;90.60
49238;DHT22;35069;47.906;1.892;2024-01-11T07:52:36;-0.80;90.50
49238;DHT22;35069;47.906;1.892;2024-01-11T07:55:03;-0.80;90.60
49238;DHT22;35069;47.906;1.892;2024-01-11T07:57:38;-0.80;90.60
49238;DHT22;35069;47.906;1.892;2024-01-11T08:00:05;-0.80;90.40
49238;DHT22;35069;47.906;1.892;2024-01-11T08:02:32;-0.70;90.40
49238;DHT22;35069;47.906;1.892;2024-01-11T08:04:58;-0.70;90.60
49238;DHT22;35069;47.906;1.892;2024-01-11T08:07:25;-0.70;90.40
49238;DHT22;35069;47.906;1.892;2024-01-11T08:09:51;-0.70;90.20
49238;DHT22;35069;47.906;1.892;2024-01-11T08:12:16;-0.70;90.40
49238;DHT22;35069;47.906;1.892;2024-01-11T08:14:42;-0.60;90.40
49238;DHT22;35069;47.906;1.892;2024-01-11T08:17:08;-0.60;90.50
49238;DHT22;35069;47.906;1.892;2024-01-11T08:19:34;-0.50;90.40
49238;DHT22;35069;47.906;1.892;2024-01-11T08:22:01;-0.50;90.40
49238;DHT22;35069;47.906;1.892;2024-01-11T08:24:27;-0.40;90.40
49238;DHT22;35069;47.906;1.892;2024-01-11T08:26:53;-0.40;90.50
49238;DHT22;35069;47.906;1.892;2024-01-11T08:29:18;-0.40;90.40
49238;DHT22;35069;47.906;1.892;2024-01-11T08:31:45;-0.30;90.30
49238;DHT22;35069;47.906;1.892;2024-01-11T08:34:11;-0.30;90.30
49238;DHT22;35069;47.906;1.892;2024-01-11T08:36:37;-0.30;90.10
49238;DHT22;35069;47.906;1.892;2024-01-11T08:39:04;-0.30;90.30
49238;DHT22;35069;47.906;1.892;2024-01-11T08:41:36;-0.20;90.30
49238;DHT22;35069;47.906;1.892;2024-01-11T08:44:03;-0.20;90.40
49238;DHT22;35069;47.906;1.892;2024-01-11T08:46:31;-0.10;90.00
49238;DHT22;35069;47.906;1.892;2024-01-11T08:48:58;-0.10;90.10
49238;DHT22;35069;47.906;1.892;2024-01-11T08:51:24;-0.10;89.40
49238;DHT22;35069;47.906;1.892;2024-01-11T08:53:50;-0.10;89.30
49238;DHT22;35069;47.906;1.892;2024-01-11T08:56:16;0.00;89.50
49238;DHT22;35069;47.906;1.892;2024-01-11T08:58:42;0.00;89.50
49238;DHT22;35069;47.906;1.892;2024-01-11T09:01:08;0.00;89.30
49238;DHT22;35069;47.906;1.892;2024-01-11T09:03:37;0.10;89.10
49238;DHT22;35069;47.906;1.892;2024-01-11T09:06:03;0.10;89.00
49238;DHT22;35069;47.906;1.892;2024-01-11T09:08:29;0.10;89.50
49238;DHT22;35069;47.906;1.892;2024-01-11T09:10:58;0.20;89.00
49238;DHT22;35069;47.906;1.892;2024-01-11T09:13:25;0.20;89.20
49238;DHT22;35069;47.906;1.892;2024-01-11T09:15:53;0.30;89.30
49238;DHT22;35069;47.906;1.892;2024-01-11T09:18:19;0.30;88.20
49238;DHT22;35069;47.906;1.892;2024-01-11T09:20:45;0.40;88.60
49238;DHT22;35069;47.906;1.892;2024-01-11T09:23:11;0.40;88.30
49238;DHT22;35069;47.906;1.892;2024-01-11T09:25:37;0.50;88.70
49238;DHT22;35069;47.906;1.892;2024-01-11T09:28:03;0.60;88.90
49238;DHT22;35069;47.906;1.892;2024-01-11T09:30:29;0.60;88.50
49238;DHT22;35069;47.906;1.892;2024-01-11T09:32:55;0.70;88.90
49238;DHT22;35069;47.906;1.892;2024-01-11T09:35:22;0.70;88.20
49238;DHT22;35069;47.906;1.892;2024-01-11T09:37:48;0.80;88.40
49238;DHT22;35069;47.906;1.892;2024-01-11T09:40:14;0.90;87.80
49238;DHT22;35069;47.906;1.892;2024-01-11T09:42:40;0.90;87.80
49238;DHT22;35069;47.906;1.892;2024-01-11T09:45:16;1.00;88.10
49238;DHT22;35069;47.906;1.892;2024-01-11T09:47:43;1.00;88.00
49238;DHT22;35069;47.906;1.892;2024-01-11T09:50:11;1.10;87.00
49238;DHT22;35069;47.906;1.892;2024-01-11T09:52:46;1.20;86.30
49238;DHT22;35069;47.906;1.892;2024-01-11T09:55:16;1.20;87.50
49238;DHT22;35069;47.906;1.892;2024-01-11T09:57:44;1.30;86.70
49238;DHT22;35069;47.906;1.892;2024-01-11T10:00:17;1.50;87.10
49238;DHT22;35069;47.906;1.892;2024-01-11T10:02:47;1.60;87.20
49238;DHT22;35069;47.906;1.892;2024-01-11T10:05:13;1.70;86.50
49238;DHT22;35069;47.906;1.892;2024-01-11T10:07:41;1.90;86.50
49238;DHT22;35069;47.906;1.892;2024-01-11T10:10:08;2.20;86.30
49238;DHT22;35069;47.906;1.892;2024-01-11T10:12:37;3.50;85.30
49238;DHT22;35069;47.906;1.892;2024-01-11T10:15:07;5.20;83.90
49238;DHT22;35069;47.906;1.892;2024-01-11T10:17:44;6.60;83.20
49238;DHT22;35069;47.906;1.892;2024-01-11T10:20:14;6.90;77.60
49238;DHT22;35069;47.906;1.892;2024-01-11T10:22:41;7.90;83.20
49238;DHT22;35069;47.906;1.892;2024-01-11T10:25:14;9.10;81.30
49238;DHT22;35069;47.906;1.892;2024-01-11T10:27:41;9.80;76.60
49238;DHT22;35069;47.906;1.892;2024-01-11T10:30:08;9.60;78.60
49238;DHT22;35069;47.906;1.892;2024-01-11T10:32:34;9.90;77.20
49238;DHT22;35069;47.906;1.892;2024-01-11T10:35:04;10.80;77.10
49238;DHT22;35069;47.906;1.892;2024-01-11T10:37:31;11.20;74.30
49238;DHT22;35069;47.906;1.892;2024-01-11T10:40:07;10.70;74.00
49238;DHT22;35069;47.906;1.892;2024-01-11T10:42:45;11.10;70.80
49238;DHT22;35069;47.906;1.892;2024-01-11T10:45:17;11.90;70.40
49238;DHT22;35069;47.906;1.892;2024-01-11T10:48:06;12.40;67.00
49238;DHT22;35069;47.906;1.892;2024-01-11T10:50:36;12.30;58.80
49238;DHT22;35069;47.906;1.892;2024-01-11T10:55:50;13.20;63.40
49238;DHT22;35069;47.906;1.892;2024-01-11T10:58:16;12.10;63.70
49238;DHT22;35069;47.906;1.892;2024-01-11T11:00:44;12.40;65.40
49238;DHT22;35069;47.906;1.892;2024-01-11T11:03:11;12.80;63.00
49238;DHT22;35069;47.906;1.892;2024-01-11T11:05:37;12.50;64.40
49238;DHT22;35069;47.906;1.892;2024-01-11T11:08:04;12.60;65.00
49238;DHT22;35069;47.906;1.892;2024-01-11T11:10:32;13.10;62.90
49238;DHT22;35069;47.906;1.892;2024-01-11T11:13:00;12.80;62.50
49238;DHT22;35069;47.906;1.892;2024-01-11T11:15:29;12.70;59.10
49238;DHT22;35069;47.906;1.892;2024-01-11T11:17:55;12.70;58.00
49238;DHT22;35069;47.906;1.892;2024-01-11T11:20:21;12.30;62.80
49238;DHT22;35069;47.906;1.892;2024-01-11T11:23:06;12.60;62.30
49238;DHT22;35069;47.906;1.892;2024-01-11T11:25:32;12.50;53.70
49238;DHT22;35069;47.906;1.892;2024-01-11T11:27:59;12.00;63.70
49238;DHT22;35069;47.906;1.892;2024-01-11T11:30:30;12.10;64.80
49238;DHT22;35069;47.906;1.892;2024-01-11T11:32:55;12.50;64.50
49238;DHT22;35069;47.906;1.892;2024-01-11T11:35:24;12.10;61.50
49238;DHT22;35069;47.906;1.892;2024-01-11T11:37:55;11.90;62.30
49238;DHT22;35069;47.906;1.892;2024-01-11T11:40:22;12.00;58.10
49238;DHT22;35069;47.906;1.892;2024-01-11T11:42:56;11.80;63.30
49238;DHT22;35069;47.906;1.892;2024-01-11T11:45:26;11.80;64.50
49238;DHT22;35069;47.906;1.892;2024-01-11T11:47:51;12.50;63.00
49238;DHT22;35069;47.906;1.892;2024-01-11T11:50:21;13.00;63.10
49238;DHT22;35069;47.906;1.892;2024-01-11T11:52:54;13.00;61.40
49238;DHT22;35069;47.906;1.892;2024-01-11T11:55:23;13.60;54.80
49238;DHT22;35069;47.906;1.892;2024-01-11T11:57:50;13.60;59.30
49238;DHT22;35069;47.906;1.892;2024-01-11T12:00:17;13.90;58.60
49238;DHT22;35069;47.906;1.892;2024-01-11T12:02:43;13.90;57.00
49238;DHT22;35069;47.906;1.892;2024-01-11T12:05:08;13.80;57.20
49238;DHT22;35069;47.906;1.892;2024-01-11T12:07:34;14.10;56.40
49238;DHT22;35069;47.906;1.892;2024-01-11T12:10:00;14.10;54.80
49238;DHT22;35069;47.906;1.892;2024-01-11T12:12:25;14.80;52.90
49238;DHT22;35069;47.906;1.892;2024-01-11T12:14:53;15.60;50.50
49238;DHT22;35069;47.906;1.892;2024-01-11T12:17:19;15.70;48.30
49238;DHT22;35069;47.906;1.892;2024-01-11T12:19:44;15.80;46.20
49238;DHT22;35069;47.906;1.892;2024-01-11T12:22:10;16.60;44.80
49238;DHT22;35069;47.906;1.892;2024-01-11T12:24:36;15.80;43.80
49238;DHT22;35069;47.906;1.892;2024-01-11T12:27:02;14.90;45.60
49238;DHT22;35069;47.906;1.892;2024-01-11T12:29:30;14.30;45.50
49238;DHT22;35069;47.906;1.892;2024-01-11T12:31:59;13.60;46.60
49238;DHT22;35069;47.906;1.892;2024-01-11T12:34:26;12.80;48.50
49238;DHT22;35069;47.906;1.892;2024-01-11T12:36:55;13.00;46.90
49238;DHT22;35069;47.906;1.892;2024-01-11T12:39:24;13.50;45.40
49238;DHT22;35069;47.906;1.892;2024-01-11T12:41:50;13.70;44.10
49238;DHT22;35069;47.906;1.892;2024-01-11T12:44:20;13.70;44.20
49238;DHT22;35069;47.906;1.892;2024-01-11T12:46:48;13.90;43.90
49238;DHT22;35069;47.906;1.892;2024-01-11T12:49:14;13.70;45.50
49238;DHT22;35069;47.906;1.892;2024-01-11T12:51:40;13.20;47.30
49238;DHT22;35069;47.906;1.892;2024-01-11T12:54:13;12.90;48.00
49238;DHT22;35069;47.906;1.892;2024-01-11T12:56:42;11.20;49.90
49238;DHT22;35069;47.906;1.892;2024-01-11T12:59:09;9.50;51.40
49238;DHT22;35069;47.906;1.892;2024-01-11T13:01:38;8.10;52.80
49238;DHT22;35069;47.906;1.892;2024-01-11T13:04:04;7.40;55.60
49238;DHT22;35069;47.906;1.892;2024-01-11T13:06:30;6.60;58.30
49238;DHT22;35069;47.906;1.892;2024-01-11T13:08:56;6.10;58.10
49238;DHT22;35069;47.906;1.892;2024-01-11T13:11:22;5.80;59.70
49238;DHT22;35069;47.906;1.892;2024-01-11T13:13:50;5.60;60.90
49238;DHT22;35069;47.906;1.892;2024-01-11T13:16:17;5.40;61.90
49238;DHT22;35069;47.906;1.892;2024-01-11T13:18:44;5.40;62.30
49238;DHT22;35069;47.906;1.892;2024-01-11T13:21:10;5.40;62.20
49238;DHT22;35069;47.906;1.892;2024-01-11T13:23:37;5.30;62.90
49238;DHT22;35069;47.906;1.892;2024-01-11T13:26:03;5.20;63.10
49238;DHT22;35069;47.906;1.892;2024-01-11T13:28:30;5.10;63.60
49238;DHT22;35069;47.906;1.892;2024-01-11T13:30:55;5.00;63.50
49238;DHT22;35069;47.906;1.892;2024-01-11T13:33:22;4.80;65.00
49238;DHT22;35069;47.906;1.892;2024-01-11T13:35:49;4.90;66.10
49238;DHT22;35069;47.906;1.892;2024-01-11T13:38:15;4.70;65.00
49238;DHT22;35069;47.906;1.892;2024-01-11T13:40:41;4.60;66.10
49238;DHT22;35069;47.906;1.892;2024-01-11T13:43:09;4.50;70.50
49238;DHT22;35069;47.906;1.892;2024-01-11T13:45:35;4.50;66.10
49238;DHT22;35069;47.906;1.892;2024-01-11T13:48:05;4.40;67.10
49238;DHT22;35069;47.906;1.892;2024-01-11T13:50:31;4.40;67.10
49238;DHT22;35069;47.906;1.892;2024-01-11T13:52:57;4.30;68.50
49238;DHT22;35069;47.906;1.892;2024-01-11T13:55:23;4.20;67.50
49238;DHT22;35069;47.906;1.892;2024-01-11T13:57:52;4.20;69.40
49238;DHT22;35069;47.906;1.892;2024-01-11T14:00:19;4.00;68.10
49238;DHT22;35069;47.906;1.892;2024-01-11T14:02:45;4.00;68.20
49238;DHT22;35069;47.906;1.892;2024-01-11T14:05:11;3.90;69.60
49238;DHT22;35069;47.906;1.892;2024-01-11T14:07:43;3.80;70.00
49238;DHT22;35069;47.906;1.892;2024-01-11T14:10:09;3.80;69.70
49238;DHT22;35069;47.906;1.892;2024-01-11T14:12:35;3.90;68.60
49238;DHT22;35069;47.906;1.892;2024-01-11T14:15:06;3.90;70.10
49238;DHT22;35069;47.906;1.892;2024-01-11T14:17:32;3.90;70.00
49238;DHT22;35069;47.906;1.892;2024-01-11T14:19:59;3.90;69.30
49238;DHT22;35069;47.906;1.892;2024-01-11T14:22:26;3.80;69.30
49238;DHT22;35069;47.906;1.892;2024-01-11T14:24:51;3.70;69.70
49238;DHT22;35069;47.906;1.892;2024-01-11T14:27:17;3.70;69.60
49238;DHT22;35069;47.906;1.892;2024-01-11T14:29:42;3.70;71.10
49238;DHT22;35069;47.906;1.892;2024-01-11T14:32:08;3.70;70.30
49238;DHT22;35069;47.906;1.892;2024-01-11T14:34:34;3.60;70.40
49238;DHT22;35069;47.906;1.892;2024-01-11T14:36:59;3.60;70.90
49238;DHT22;35069;47.906;1.892;2024-01-11T14:39:25;3.60;72.00
49238;DHT22;35069;47.906;1.892;2024-01-11T14:41:52;3.50;71.70
49238;DHT22;35069;47.906;1.892;2024-01-11T14:44:17;3.60;71.70
49238;DHT22;35069;47.906;1.892;2024-01-11T14:46:43;3.50;71.50
49238;DHT22;35069;47.906;1.892;2024-01-11T14:49:08;3.50;71.20
49238;DHT22;35069;47.906;1.892;2024-01-11T14:51:34;3.50;71.70
49238;DHT22;35069;47.906;1.892;2024-01-11T14:54:02;3.50;72.10
49238;DHT22;35069;47.906;1.892;2024-01-11T14:56:43;3.50;71.70
49238;DHT22;35069;47.906;1.892;2024-01-11T14:59:34;3.50;71.60
49238;DHT22;35069;47.906;1.892;2024-01-11T15:41:02;3.00;73.70
49238;DHT22;35069;47.906;1.892;2024-01-11T15:44:13;2.90;73.10
49238;DHT22;35069;47.906;1.892;2024-01-11T15:47:02;2.90;75.90
49238;DHT22;35069;47.906;1.892;2024-01-11T15:49:40;2.90;73.60
49238;DHT22;35069;47.906;1.892;2024-01-11T15:52:43;2.80;75.40
49238;DHT22;35069;47.906;1.892;2024-01-11T15:55:09;2.80;75.60
49238;DHT22;35069;47.906;1.892;2024-01-11T15:57:35;2.70;74.00
49238;DHT22;35069;47.906;1.892;2024-01-11T16:00:02;2.70;74.60
49238;DHT22;35069;47.906;1.892;2024-01-11T16:02:29;2.60;74.80
49238;DHT22;35069;47.906;1.892;2024-01-11T16:04:57;2.60;74.90
49238;DHT22;35069;47.906;1.892;2024-01-11T16:07:22;2.50;74.90
49238;DHT22;35069;47.906;1.892;2024-01-11T16:09:48;2.50;74.60
49238;DHT22;35069;47.906;1.892;2024-01-11T16:12:15;2.50;75.40
49238;DHT22;35069;47.906;1.892;2024-01-11T16:14:43;2.50;75.00
49238;DHT22;35069;47.906;1.892;2024-01-11T16:17:10;2.40;75.50
49238;DHT22;35069;47.906;1.892;2024-01-11T16:19:36;2.30;75.30